Аэропорт: Павлодар. Павлодар

ICAO: UASP

METAR:
2018/07/22 20:00
UASP 222000Z 01003MPS 9999 BKN042CB 14/12 Q1002 R03/0///70 NOSIG RMK QFE741/0989
METAR:
2018/05/04 03:06
TAF TAF UASP 040200Z 0403/041209 14012MPS 9999 BKN020CB OVC100 
      TEMPO 0403/0406 12017MPS 3100 -SHRA SCT010 OVC020CB 
      TEMPO 0406/0412 17020MPS 3100 -SHRA BKN006 OVC020CB